Time;durP1;ratioP1;P1;durP2;ratioP2;P2;SDS_P1;SDS_P2;PMS_P1;PMS_P2;Temp;Humidity;BMP_temperature;BMP_pressure;BME280_temperature;BME280_humidity;BME280_pressure;Samples;Min_cycle;Max_cycle;Signal;HPM_P1;HPM_P2
2023/10/18 00:00:04;;;;;;;15.60;11.77;;;;;;;9.56;55.33;97112.38;5025598;28;20192;-67
2023/10/18 00:02:30;;;;;;;15.43;12.20;;;;;;;9.56;55.59;97122.00;5032658;28;20430;-67
2023/10/18 00:04:57;;;;;;;15.03;12.10;;;;;;;9.57;55.56;97116.66;5023308;28;20430;-68
2023/10/18 00:07:22;;;;;;;16.27;12.77;;;;;;;9.52;55.79;97113.63;5033740;28;20435;-69
2023/10/18 00:09:50;;;;;;;17.63;12.50;;;;;;;9.52;56.17;97105.78;5026743;28;20438;-69
2023/10/18 00:12:16;;;;;;;14.60;11.70;;;;;;;9.53;55.91;97110.88;5016940;28;20268;-69
2023/10/18 00:14:45;;;;;;;17.17;12.63;;;;;;;9.55;55.91;97110.75;5026043;28;20973;-67
2023/10/18 00:17:12;;;;;;;16.67;13.13;;;;;;;9.57;55.65;97103.56;5035170;28;20418;-68
2023/10/18 00:19:38;;;;;;;16.03;12.43;;;;;;;9.54;55.68;97109.09;5028450;28;20430;-68
2023/10/18 00:22:07;;;;;;;14.83;11.87;;;;;;;9.49;56.06;97100.84;5036534;28;20576;-69
2023/10/18 00:24:32;;;;;;;15.97;11.37;;;;;;;9.50;55.78;97105.13;5035289;28;20429;-68
2023/10/18 00:26:58;;;;;;;15.10;11.70;;;;;;;9.45;55.29;97099.53;5028419;28;20422;-68
2023/10/18 00:29:24;;;;;;;14.10;10.40;;;;;;;9.46;55.38;97104.59;5036510;28;20218;-70
2023/10/18 00:31:49;;;;;;;16.63;11.73;;;;;;;9.41;55.50;97104.19;5025318;28;20411;-68
2023/10/18 00:34:15;;;;;;;14.63;11.60;;;;;;;9.40;55.55;97096.50;5027950;28;20704;-69
2023/10/18 00:36:40;;;;;;;14.90;11.37;;;;;;;9.44;55.59;97095.25;5028587;28;20282;-69
2023/10/18 00:39:21;;;;;;;15.70;11.20;;;;;;;9.52;55.63;97090.09;5028332;28;20337;-68
2023/10/18 00:41:48;;;;;;;14.13;11.50;;;;;;;9.47;55.37;97087.94;5032696;28;20191;-69
2023/10/18 00:44:13;;;;;;;14.63;11.50;;;;;;;9.35;55.76;97089.91;5036629;28;20426;-69
2023/10/18 00:46:39;;;;;;;15.77;11.57;;;;;;;9.40;55.82;97081.63;5038258;28;20477;-67
2023/10/18 00:49:14;;;;;;;12.97;10.93;;;;;;;9.37;55.84;97077.53;5028766;28;20711;-70
2023/10/18 00:51:43;;;;;;;12.93;10.87;;;;;;;9.33;55.90;97065.69;5026757;28;20242;-69
2023/10/18 00:54:12;;;;;;;18.73;12.97;;;;;;;9.33;55.82;97070.94;5027966;28;20426;-69
2023/10/18 00:56:45;;;;;;;17.57;12.33;;;;;;;9.32;55.85;97068.47;5038131;28;20425;-70
2023/10/18 00:59:26;;;;;;;15.20;11.50;;;;;;;9.35;56.03;97063.75;5037869;28;20512;-67
2023/10/18 01:01:59;;;;;;;14.97;11.20;;;;;;;9.29;55.76;97059.13;5029005;28;20466;-68
2023/10/18 01:04:28;;;;;;;13.53;11.33;;;;;;;9.28;55.70;97065.34;5022889;28;20435;-67
2023/10/18 01:06:57;;;;;;;16.10;12.07;;;;;;;9.17;55.80;97055.09;5034846;28;20426;-68
2023/10/18 01:09:23;;;;;;;15.13;11.80;;;;;;;9.20;56.05;97049.53;5035883;28;20468;-69
2023/10/18 01:11:50;;;;;;;15.17;12.20;;;;;;;9.26;55.80;97051.56;5028520;28;20448;-68
2023/10/18 01:14:24;;;;;;;15.33;12.10;;;;;;;9.25;56.16;97044.69;5028438;28;20514;-67
2023/10/18 01:16:52;;;;;;;14.20;11.47;;;;;;;9.27;55.70;97034.91;5027733;28;20427;-69
2023/10/18 01:19:19;;;;;;;14.27;11.40;;;;;;;9.31;55.58;97032.81;5040671;28;20965;-69
2023/10/18 01:21:49;;;;;;;16.00;11.57;;;;;;;9.29;55.42;97030.38;5032473;28;20438;-69
2023/10/18 01:24:15;;;;;;;15.30;11.97;;;;;;;9.28;55.23;97033.13;5030688;28;20454;-69
2023/10/18 01:26:41;;;;;;;13.80;11.47;;;;;;;9.21;55.15;97027.66;5028876;28;20428;-69
2023/10/18 01:29:09;;;;;;;16.03;11.40;;;;;;;9.23;55.22;97028.34;5034243;28;20206;-69
2023/10/18 01:31:36;;;;;;;15.53;12.13;;;;;;;9.18;55.77;97025.34;5040667;28;20179;-68
2023/10/18 01:34:03;;;;;;;16.27;11.30;;;;;;;9.15;55.69;97029.06;5033918;28;20431;-67
2023/10/18 01:36:38;;;;;;;16.57;12.23;;;;;;;9.19;55.61;97017.34;5031932;28;20879;-69
2023/10/18 01:39:09;;;;;;;14.80;11.20;;;;;;;9.17;56.21;97019.28;5027956;28;20437;-68
2023/10/18 01:41:37;;;;;;;14.07;11.83;;;;;;;9.15;56.26;97015.19;5029157;28;20433;-68
2023/10/18 01:44:07;;;;;;;19.60;12.53;;;;;;;9.13;56.45;97002.28;5027580;28;20509;-67
2023/10/18 01:46:37;;;;;;;13.47;11.17;;;;;;;9.10;56.53;97006.94;5032834;28;20797;-68
2023/10/18 01:49:06;;;;;;;15.57;12.50;;;;;;;9.16;56.37;97006.38;5031910;28;20458;-68
2023/10/18 01:51:32;;;;;;;15.83;11.57;;;;;;;9.12;56.24;97010.25;5026266;28;20431;-68
2023/10/18 01:54:05;;;;;;;19.73;12.57;;;;;;;9.04;56.58;97003.97;5031300;28;20784;-68
2023/10/18 01:56:31;;;;;;;16.80;12.67;;;;;;;8.98;56.17;97003.75;5042682;28;20181;-68
2023/10/18 01:58:57;;;;;;;14.37;12.50;;;;;;;9.02;56.63;96999.84;5039824;28;20441;-67
2023/10/18 02:01:22;;;;;;;17.13;12.83;;;;;;;8.91;55.99;96998.28;5041811;28;20179;-69
2023/10/18 02:03:50;;;;;;;18.93;13.53;;;;;;;8.88;56.51;96996.75;5036017;28;20217;-68
2023/10/18 02:06:16;;;;;;;15.10;11.70;;;;;;;8.87;56.48;96992.53;5040787;28;20237;-69
2023/10/18 02:08:41;;;;;;;18.13;12.90;;;;;;;8.93;56.61;96991.13;5032091;28;20469;-69
2023/10/18 02:11:09;;;;;;;14.57;12.07;;;;;;;8.92;56.78;96994.69;5035817;28;20418;-69
2023/10/18 02:13:36;;;;;;;16.20;11.50;;;;;;;8.91;56.79;96995.66;5032967;28;20192;-69
2023/10/18 02:16:04;;;;;;;15.97;12.73;;;;;;;8.90;57.46;97000.06;5036132;28;20423;-69
2023/10/18 02:18:30;;;;;;;17.10;13.27;;;;;;;8.93;57.38;96996.34;5041347;28;20472;-68
2023/10/18 02:20:55;;;;;;;19.23;12.93;;;;;;;8.98;57.44;96993.28;5030983;28;20918;-69
2023/10/18 02:23:23;;;;;;;18.90;13.13;;;;;;;8.98;57.21;96995.91;5030716;28;20203;-68
2023/10/18 02:25:49;;;;;;;16.17;13.57;;;;;;;9.02;57.64;96995.44;5032847;28;20223;-68
2023/10/18 02:28:23;;;;;;;16.30;13.10;;;;;;;8.96;57.56;96996.03;5030997;28;20531;-67
2023/10/18 02:31:13;;;;;;;16.63;13.13;;;;;;;8.95;57.07;96991.75;5030353;28;20434;-69
2023/10/18 02:33:45;;;;;;;18.47;12.67;;;;;;;9.03;56.76;96986.66;5038984;28;20430;-69
2023/10/18 02:36:11;;;;;;;15.47;12.90;;;;;;;9.05;56.84;96984.72;5040443;28;20843;-69
2023/10/18 02:38:41;;;;;;;14.07;12.10;;;;;;;9.03;56.93;96983.19;5030015;28;20484;-67
2023/10/18 02:41:21;;;;;;;15.50;12.30;;;;;;;9.07;57.01;96981.94;5026962;28;20427;-66
2023/10/18 02:43:49;;;;;;;17.00;13.27;;;;;;;9.02;56.66;96974.53;5039186;28;20437;-66
2023/10/18 02:46:20;;;;;;;19.37;13.53;;;;;;;9.04;56.87;96979.59;5045341;28;21021;-67
2023/10/18 02:48:47;;;;;;;17.30;13.40;;;;;;;9.03;56.88;96970.97;5032978;28;20481;-68
2023/10/18 02:51:13;;;;;;;19.70;14.07;;;;;;;9.05;56.38;96974.25;5038760;28;20422;-69
2023/10/18 02:53:41;;;;;;;16.47;13.13;;;;;;;9.07;56.29;96976.69;5031595;28;20448;-68
2023/10/18 02:56:10;;;;;;;18.23;13.83;;;;;;;9.09;56.46;96980.00;5033321;28;20461;-69
2023/10/18 02:58:38;;;;;;;17.87;13.50;;;;;;;9.09;57.14;96979.16;5037737;28;20944;-67
2023/10/18 03:01:08;;;;;;;22.60;13.13;;;;;;;9.15;57.25;96978.59;5031164;28;20846;-68
2023/10/18 03:03:34;;;;;;;20.63;14.57;;;;;;;9.19;57.31;96964.25;5029459;28;20418;-68
2023/10/18 03:06:06;;;;;;;24.27;14.47;;;;;;;9.18;57.85;96962.59;5030425;28;20818;-68
2023/10/18 03:08:32;;;;;;;23.40;13.87;;;;;;;9.15;58.07;96963.69;5037734;28;20265;-68
2023/10/18 03:11:00;;;;;;;17.77;13.77;;;;;;;9.12;58.08;96963.19;5040439;28;20419;-68
2023/10/18 03:13:27;;;;;;;18.90;13.83;;;;;;;9.05;58.10;96955.94;5035274;28;20516;-69
2023/10/18 03:16:04;;;;;;;19.87;14.13;;;;;;;9.04;57.79;96956.91;5030621;28;20485;-68
2023/10/18 03:18:31;;;;;;;15.93;13.20;;;;;;;8.98;57.86;96954.06;5029437;28;20504;-67
2023/10/18 03:20:57;;;;;;;19.10;14.30;;;;;;;8.89;57.75;96947.94;5016136;28;20426;-68
2023/10/18 03:23:26;;;;;;;20.10;14.83;;;;;;;8.98;57.68;96956.69;5029516;28;20419;-68
2023/10/18 03:26:07;;;;;;;17.70;13.77;;;;;;;8.98;57.29;96957.50;5036104;28;21868;-68
2023/10/18 03:28:36;;;;;;;16.17;13.33;;;;;;;9.01;57.22;96956.41;5038907;28;20518;-67
2023/10/18 03:31:20;;;;;;;17.03;13.73;;;;;;;9.01;57.78;96957.22;5036664;28;20444;-67
2023/10/18 03:33:46;;;;;;;17.23;13.80;;;;;;;8.98;57.66;96951.47;5030307;28;20414;-68
2023/10/18 03:36:20;;;;;;;18.77;14.40;;;;;;;8.91;57.79;96951.22;5035415;28;20434;-68
2023/10/18 03:38:53;;;;;;;18.03;14.00;;;;;;;8.92;57.52;96942.44;5029137;28;20205;-69
2023/10/18 03:41:19;;;;;;;17.90;13.77;;;;;;;8.86;57.48;96943.84;5028808;28;20423;-68
2023/10/18 03:43:48;;;;;;;17.77;13.73;;;;;;;8.90;57.60;96939.13;5040563;28;20413;-68
2023/10/18 03:46:13;;;;;;;17.80;14.60;;;;;;;8.89;57.65;96937.47;5033872;28;20422;-68
2023/10/18 03:48:40;;;;;;;16.57;13.03;;;;;;;8.87;57.15;96942.88;5035271;28;20471;-68
2023/10/18 03:51:06;;;;;;;18.07;13.50;;;;;;;8.87;57.25;96953.31;5032436;28;20187;-69
2023/10/18 03:53:31;;;;;;;21.20;15.30;;;;;;;8.75;57.65;96950.09;5036353;28;20488;-67
2023/10/18 03:55:57;;;;;;;16.70;13.67;;;;;;;8.83;57.59;96945.91;5038346;28;20410;-68
2023/10/18 03:58:24;;;;;;;17.30;14.13;;;;;;;8.84;58.06;96937.94;5028125;28;20199;-68
2023/10/18 04:00:56;;;;;;;16.67;14.10;;;;;;;8.88;58.17;96923.59;5029789;28;20214;-68
2023/10/18 04:03:27;;;;;;;19.97;14.20;;;;;;;8.94;57.39;96929.19;5038422;28;20425;-67
2023/10/18 04:05:54;;;;;;;16.60;13.67;;;;;;;8.90;57.52;96929.50;5031013;28;20433;-67
2023/10/18 04:08:20;;;;;;;18.00;13.93;;;;;;;8.90;57.21;96918.22;5035751;28;20511;-66
2023/10/18 04:10:58;;;;;;;18.43;13.60;;;;;;;8.85;57.53;96910.00;5029509;28;20510;-67
2023/10/18 04:13:24;;;;;;;18.00;13.90;;;;;;;8.80;57.62;96901.78;5033640;28;20437;-68
2023/10/18 04:15:59;;;;;;;21.47;14.90;;;;;;;8.78;57.25;96891.47;5027889;28;20991;-68
2023/10/18 04:18:26;;;;;;;21.70;16.30;;;;;;;8.75;57.55;96884.75;5028397;28;20461;-67
2023/10/18 04:20:52;;;;;;;23.67;16.73;;;;;;;8.76;57.64;96891.63;5033276;28;20438;-67
2023/10/18 04:23:27;;;;;;;22.40;16.50;;;;;;;8.79;57.70;96887.91;5029313;28;20414;-69
2023/10/18 04:26:00;;;;;;;22.10;16.13;;;;;;;8.69;57.57;96894.97;5029791;28;20458;-68
2023/10/18 04:28:30;;;;;;;18.70;14.20;;;;;;;8.69;58.09;96894.97;5034597;28;20461;-67
2023/10/18 04:31:03;;;;;;;21.20;14.53;;;;;;;8.70;57.99;96891.41;5032123;28;20430;-67
2023/10/18 04:33:35;;;;;;;21.97;16.60;;;;;;;8.72;58.44;96887.66;5029525;28;20430;-68
2023/10/18 04:36:09;;;;;;;23.20;16.17;;;;;;;8.76;58.55;96880.34;5027268;28;20429;-68
2023/10/18 04:38:42;;;;;;;19.53;16.50;;;;;;;8.82;58.03;96873.72;5038111;28;20429;-69
2023/10/18 04:41:08;;;;;;;23.50;16.30;;;;;;;8.84;58.29;96877.00;5027648;28;20418;-67
2023/10/18 04:43:34;;;;;;;24.67;17.50;;;;;;;8.80;57.95;96873.06;5032195;28;20441;-68
2023/10/18 04:51:27;;;;;;;19.10;15.07;;;;;;;8.84;57.47;96877.81;5037502;28;20444;-67
2023/10/18 04:54:03;;;;;;;22.00;15.53;;;;;;;8.84;57.99;96871.75;5036915;28;20425;-68
2023/10/18 04:56:33;;;;;;;20.60;15.50;;;;;;;8.88;58.11;96862.66;5022752;28;20422;-67
2023/10/18 04:59:11;;;;;;;19.63;14.67;;;;;;;8.85;58.09;96858.56;5023049;28;21150;-67
2023/10/18 05:04:31;;;;;;;22.30;17.10;;;;;;;8.82;57.93;96850.22;5035807;28;20436;-68
2023/10/18 05:07:00;;;;;;;57.53;34.50;;;;;;;8.78;58.27;96851.47;5036640;28;20909;-67
2023/10/18 05:09:31;;;;;;;31.30;21.03;;;;;;;8.68;58.34;96852.38;5032816;28;20540;-66
2023/10/18 05:12:07;;;;;;;31.53;21.20;;;;;;;8.63;58.56;96853.78;5026234;28;20958;-67
2023/10/18 05:14:40;;;;;;;22.93;16.63;;;;;;;8.59;58.57;96848.00;5038958;28;20445;-68
2023/10/18 05:17:11;;;;;;;20.40;15.53;;;;;;;8.63;58.47;96841.53;5030440;28;20914;-68
2023/10/18 05:19:41;;;;;;;30.90;17.50;;;;;;;8.66;58.27;96849.09;5042636;28;20449;-68
2023/10/18 05:22:08;;;;;;;21.93;15.53;;;;;;;8.75;58.19;96847.38;5023554;28;20791;-69
2023/10/18 05:24:37;;;;;;;21.23;16.57;;;;;;;8.79;58.70;96848.69;5035412;28;20426;-66
2023/10/18 05:27:07;;;;;;;22.13;16.80;;;;;;;8.82;58.60;96852.81;5034450;28;20438;-68
2023/10/18 05:29:43;;;;;;;20.07;16.63;;;;;;;8.85;58.37;96848.13;5033326;28;20505;-69
2023/10/18 05:32:37;;;;;;;26.83;17.40;;;;;;;8.86;58.80;96848.91;5033215;28;20461;-67
2023/10/18 05:35:11;;;;;;;21.20;16.07;;;;;;;8.89;58.63;96844.22;5038292;28;20430;-68
2023/10/18 05:37:41;;;;;;;32.17;16.97;;;;;;;8.93;58.48;96844.75;5031215;28;20445;-67
2023/10/18 05:40:45;;;;;;;22.10;16.80;;;;;;;8.91;58.96;96847.50;5038786;28;20439;-69
2023/10/18 05:42:52;;;;;;;22.67;16.47;;;;;;;8.95;58.66;96850.63;5030614;28;20468;-68
2023/10/18 05:45:19;;;;;;;27.03;18.47;;;;;;;8.98;58.41;96849.53;5043037;28;20469;-68
2023/10/18 05:47:46;;;;;;;25.97;18.43;;;;;;;8.96;58.68;96847.03;5032722;28;20176;-68
2023/10/18 05:50:12;;;;;;;25.37;18.20;;;;;;;8.98;58.28;96842.50;5021957;28;20827;-67
2023/10/18 05:52:39;;;;;;;31.07;18.73;;;;;;;8.94;58.90;96835.09;5044126;28;20424;-69
2023/10/18 05:55:09;;;;;;;29.50;21.83;;;;;;;8.91;58.44;96831.00;5039444;28;20442;-68
2023/10/18 05:57:34;;;;;;;34.10;22.23;;;;;;;8.91;58.31;96831.00;5030548;28;20937;-66
2023/10/18 06:00:00;;;;;;;24.73;20.03;;;;;;;8.89;58.01;96828.53;5021523;28;20438;-66
2023/10/18 06:02:26;;;;;;;27.83;18.33;;;;;;;8.88;59.09;96821.66;5031705;28;20518;-69
2023/10/18 06:04:55;;;;;;;28.27;20.77;;;;;;;8.94;59.01;96825.50;5032682;28;20489;-67
2023/10/18 06:07:23;;;;;;;25.23;17.60;;;;;;;8.93;58.99;96823.84;5040771;28;20206;-68
2023/10/18 06:09:57;;;;;;;22.93;17.97;;;;;;;8.98;58.92;96826.81;5035859;28;20470;-68
2023/10/18 06:12:38;;;;;;;25.13;19.50;;;;;;;8.95;59.36;96827.09;5031055;28;20434;-69
2023/10/18 06:15:10;;;;;;;26.30;17.93;;;;;;;8.91;59.35;96817.94;5031342;28;20919;-69
2023/10/18 06:20:14;;;;;;;24.40;18.83;;;;;;;8.96;59.23;96812.25;5038320;28;20448;-69
2023/10/18 06:22:43;;;;;;;26.87;18.70;;;;;;;8.95;59.57;96815.84;5045042;28;20425;-69
2023/10/18 06:25:24;;;;;;;24.40;18.03;;;;;;;8.99;59.41;96807.53;5041328;28;20426;-68
2023/10/18 06:27:50;;;;;;;24.97;17.03;;;;;;;9.06;59.74;96805.97;5030298;28;20431;-68
2023/10/18 06:30:17;;;;;;;24.80;18.27;;;;;;;9.16;59.40;96815.50;5034768;28;20840;-69
2023/10/18 06:32:44;;;;;;;28.90;18.60;;;;;;;9.19;59.47;96802.13;5032166;28;20180;-68
2023/10/18 06:35:15;;;;;;;33.40;18.80;;;;;;;9.17;59.61;96815.34;5036253;28;20801;-69
2023/10/18 06:37:41;;;;;;;31.20;19.00;;;;;;;9.22;59.76;96805.25;5038656;28;20430;-70
2023/10/18 06:40:21;;;;;;;28.03;19.80;;;;;;;9.29;59.73;96808.09;5036882;28;20454;-69
2023/10/18 06:42:46;;;;;;;26.50;18.73;;;;;;;9.37;59.81;96795.03;5034423;28;20176;-71
2023/10/18 06:45:15;;;;;;;28.90;18.63;;;;;;;9.41;60.06;96794.75;5030581;28;20957;-69
2023/10/18 06:47:44;;;;;;;28.17;19.50;;;;;;;9.50;60.33;96804.28;5027799;28;20189;-69
2023/10/18 06:50:11;;;;;;;25.50;19.40;;;;;;;9.55;59.93;96798.56;5030292;28;20549;-70
2023/10/18 06:52:52;;;;;;;29.67;20.57;;;;;;;9.60;60.05;96796.31;5037439;28;20517;-69
2023/10/18 06:55:19;;;;;;;32.47;19.60;;;;;;;9.70;60.44;96798.81;5030341;28;20450;-68
2023/10/18 06:57:49;;;;;;;26.10;20.67;;;;;;;9.75;60.14;96793.91;5029740;28;20441;-69
2023/10/18 07:00:15;;;;;;;25.97;20.50;;;;;;;9.81;60.34;96795.94;5021814;28;20484;-69
2023/10/18 07:02:41;;;;;;;26.73;18.50;;;;;;;9.82;60.44;96792.34;5031065;28;20948;-69
2023/10/18 07:05:08;;;;;;;24.90;19.23;;;;;;;9.80;61.02;96794.28;5030458;28;21000;-68
2023/10/18 07:07:34;;;;;;;28.60;19.90;;;;;;;9.86;60.63;96791.03;5041706;28;20179;-69
2023/10/18 07:10:04;;;;;;;27.50;19.90;;;;;;;9.93;60.64;96794.66;5038888;28;20835;-69
2023/10/18 07:12:44;;;;;;;30.63;20.27;;;;;;;9.97;60.52;96795.97;5029380;28;20234;-69
2023/10/18 07:15:16;;;;;;;32.17;19.43;;;;;;;10.01;60.15;96786.03;5029199;28;21141;-70
2023/10/18 07:17:46;;;;;;;54.83;20.50;;;;;;;10.11;60.28;96775.38;5042120;28;20619;-68
2023/10/18 07:20:15;;;;;;;25.60;19.50;;;;;;;10.13;60.29;96774.28;5030680;28;20450;-68
2023/10/18 07:22:44;;;;;;;25.53;20.07;;;;;;;10.21;60.49;96765.59;5035747;28;20432;-68
2023/10/18 07:25:19;;;;;;;25.80;20.53;;;;;;;10.29;60.50;96756.94;5042295;28;20422;-71
2023/10/18 07:27:45;;;;;;;29.70;19.97;;;;;;;10.43;60.85;96753.72;5024712;28;20425;-70
2023/10/18 07:30:16;;;;;;;26.63;19.50;;;;;;;10.54;61.05;96747.34;5037276;28;20457;-69
2023/10/18 07:32:42;;;;;;;48.10;28.83;;;;;;;10.70;61.34;96753.56;5029731;28;20462;-69
2023/10/18 07:35:12;;;;;;;102.80;52.53;;;;;;;10.81;61.30;96745.38;5028686;28;20983;-69
2023/10/18 07:37:41;;;;;;;53.97;32.03;;;;;;;10.95;60.98;96745.69;5037145;28;20498;-68
2023/10/18 07:40:10;;;;;;;35.07;23.77;;;;;;;11.07;60.97;96741.75;5036172;28;21021;-69
2023/10/18 07:42:40;;;;;;;28.50;21.60;;;;;;;11.15;59.91;96733.84;5030884;28;20438;-69
2023/10/18 07:45:08;;;;;;;28.60;19.63;;;;;;;11.25;59.38;96731.06;5036695;28;20447;-69
2023/10/18 07:47:37;;;;;;;26.27;19.47;;;;;;;11.37;58.76;96729.69;5027485;28;20850;-69
2023/10/18 07:50:25;;;;;;;25.27;19.37;;;;;;;11.42;58.05;96730.97;5027955;28;21048;-70
2023/10/18 07:52:54;;;;;;;26.87;19.60;;;;;;;11.50;57.60;96728.34;5039864;28;20426;-69
2023/10/18 07:55:21;;;;;;;22.23;18.50;;;;;;;11.62;57.80;96726.16;5026730;28;20433;-71
2023/10/18 07:57:47;;;;;;;30.17;19.03;;;;;;;11.74;56.82;96730.03;5031782;28;20426;-69
2023/10/18 08:00:22;;;;;;;30.53;19.40;;;;;;;11.84;56.56;96729.84;5033286;28;20818;-69
2023/10/18 08:02:51;;;;;;;24.23;18.13;;;;;;;12.09;56.81;96713.97;5030402;28;21183;-71
2023/10/18 08:05:19;;;;;;;20.60;18.00;;;;;;;12.34;56.81;96709.38;5037034;28;20504;-70
2023/10/18 08:07:55;;;;;;;24.13;18.30;;;;;;;12.52;55.45;96705.63;5040112;28;20919;-69
2023/10/18 08:10:21;;;;;;;22.23;18.43;;;;;;;12.68;53.88;96713.38;5037809;28;20768;-69
2023/10/18 08:13:03;;;;;;;24.97;17.70;;;;;;;12.89;54.15;96702.19;5033492;28;20445;-68
2023/10/18 08:15:34;;;;;;;21.63;17.47;;;;;;;13.15;53.42;96716.72;5037353;28;20452;-69
2023/10/18 08:18:00;;;;;;;20.13;17.30;;;;;;;13.42;52.82;96717.09;5036194;28;20422;-68
2023/10/18 08:22:51;;;;;;;21.40;17.43;;;;;;;13.54;51.10;96730.63;5028239;28;20271;-70
2023/10/18 08:25:29;;;;;;;28.40;17.30;;;;;;;13.60;50.51;96729.91;5034924;28;20674;-69
2023/10/18 08:27:55;;;;;;;22.83;16.40;;;;;;;13.72;50.38;96726.81;5034782;28;20211;-69
2023/10/18 08:33:08;;;;;;;18.70;15.60;;;;;;;13.71;50.12;96728.59;5036769;28;21093;-70
2023/10/18 08:35:34;;;;;;;22.80;17.37;;;;;;;13.60;50.04;96726.44;5028141;28;20411;-71
2023/10/18 08:38:01;;;;;;;22.20;16.77;;;;;;;13.32;50.20;96720.00;5034531;28;20851;-70
2023/10/18 08:40:27;;;;;;;22.20;17.27;;;;;;;13.40;50.53;96713.03;5027081;28;20929;-70
2023/10/18 08:43:05;;;;;;;20.97;16.90;;;;;;;13.58;50.68;96720.53;5032211;28;21170;-70
2023/10/18 08:45:36;;;;;;;19.60;15.87;;;;;;;13.72;50.10;96727.59;5022427;28;20437;-70
2023/10/18 08:48:09;;;;;;;20.80;16.43;;;;;;;13.83;49.74;96734.22;5026299;28;20461;-69
2023/10/18 08:50:37;;;;;;;19.90;16.03;;;;;;;14.03;49.82;96720.47;5027673;28;20410;-70
2023/10/18 08:53:03;;;;;;;29.77;16.63;;;;;;;14.29;49.20;96715.47;5034212;28;20447;-69
2023/10/18 08:55:51;;;;;;;23.70;16.40;;;;;;;14.41;48.24;96704.41;5031458;28;20959;-70
2023/10/18 08:58:19;;;;;;;22.00;16.53;;;;;;;14.69;48.45;96701.03;5034194;28;20176;-70
2023/10/18 09:03:27;;;;;;;30.30;18.17;;;;;;;15.09;47.66;96685.50;5035986;28;20434;-68
2023/10/18 09:06:07;;;;;;;21.07;16.30;;;;;;;15.11;46.99;96685.31;5039646;28;20427;-69
2023/10/18 09:08:49;;;;;;;22.77;16.87;;;;;;;15.39;47.25;96677.31;5042398;28;20860;-70
2023/10/18 09:11:22;;;;;;;26.90;15.90;;;;;;;15.77;46.87;96670.78;5033710;28;20442;-69
2023/10/18 09:16:35;;;;;;;18.53;14.70;;;;;;;16.13;45.02;96680.25;5026917;28;20426;-70
2023/10/18 09:19:00;;;;;;;21.47;15.03;;;;;;;16.43;44.68;96683.34;5034066;28;20573;-69
2023/10/18 09:21:32;;;;;;;26.93;13.70;;;;;;;16.89;44.12;96659.72;5042340;28;20863;-69
2023/10/18 09:24:00;;;;;;;16.50;12.80;;;;;;;17.17;42.42;96663.97;5044872;28;20191;-69
2023/10/18 09:26:28;;;;;;;18.87;12.80;;;;;;;17.54;41.73;96661.63;5042821;28;20426;-71
2023/10/18 09:28:59;;;;;;;18.17;14.10;;;;;;;17.64;41.18;96658.53;5041943;28;20466;-69
2023/10/18 09:31:26;;;;;;;19.93;13.40;;;;;;;17.67;40.59;96652.81;5034686;28;20955;-69
2023/10/18 09:33:52;;;;;;;20.07;13.50;;;;;;;17.48;40.99;96651.88;5038297;28;20417;-69
2023/10/18 09:36:19;;;;;;;16.23;12.37;;;;;;;17.46;41.73;96646.78;5035165;28;20771;-70
2023/10/18 09:38:47;;;;;;;20.37;13.10;;;;;;;17.43;41.35;96641.09;5047819;28;20469;-70
2023/10/18 09:41:12;;;;;;;15.33;12.60;;;;;;;17.49;41.42;96646.34;5035913;28;20422;-70
2023/10/18 09:43:39;;;;;;;15.40;13.10;;;;;;;17.51;41.12;96640.88;5046568;28;20545;-70
2023/10/18 09:46:05;;;;;;;17.70;11.60;;;;;;;17.56;41.15;96635.72;5033658;28;20983;-69
2023/10/18 09:48:32;;;;;;;13.33;11.83;;;;;;;17.66;41.07;96636.09;5033811;28;20596;-69
2023/10/18 09:51:06;;;;;;;20.63;12.50;;;;;;;17.74;40.29;96628.94;5042022;28;20911;-70
2023/10/18 09:53:34;;;;;;;12.33;11.03;;;;;;;17.86;40.68;96639.66;5044927;28;20421;-69
2023/10/18 09:56:00;;;;;;;13.87;11.90;;;;;;;17.85;40.47;96641.50;5048654;28;20429;-69
2023/10/18 09:58:28;;;;;;;15.43;11.87;;;;;;;17.35;40.61;96637.66;5035350;28;20966;-70
2023/10/18 10:00:58;;;;;;;16.03;11.00;;;;;;;17.50;40.62;96637.38;5033501;28;20426;-70
2023/10/18 10:03:24;;;;;;;13.97;11.70;;;;;;;17.66;40.54;96630.78;5031638;28;21011;-70
2023/10/18 10:05:51;;;;;;;14.30;11.27;;;;;;;17.59;40.41;96630.03;5029195;28;20430;-71
2023/10/18 10:08:18;;;;;;;12.57;11.27;;;;;;;17.46;40.21;96622.94;5030517;28;20458;-69
2023/10/18 10:10:45;;;;;;;18.50;11.77;;;;;;;17.33;40.68;96615.88;5030556;28;20848;-69
2023/10/18 10:13:19;;;;;;;15.27;11.93;;;;;;;17.18;41.04;96613.47;5032772;28;20449;-70
2023/10/18 10:16:04;;;;;;;15.13;11.90;;;;;;;17.14;41.37;96600.84;5024130;28;20521;-69
2023/10/18 10:18:35;;;;;;;13.97;11.40;;;;;;;17.11;41.61;96601.28;5030294;28;20450;-69
2023/10/18 10:21:08;;;;;;;14.67;12.50;;;;;;;17.04;41.43;96606.59;5029688;28;20414;-69
2023/10/18 10:23:35;;;;;;;13.40;11.27;;;;;;;17.18;41.46;96596.78;5041293;28;20419;-69
2023/10/18 10:26:11;;;;;;;13.57;10.60;;;;;;;17.48;40.94;96598.91;5032699;28;20494;-68
2023/10/18 10:31:54;;;;;;;16.27;11.70;;;;;;;17.86;40.52;96591.94;5029312;28;20442;-69
2023/10/18 10:34:27;;;;;;;15.17;10.70;;;;;;;18.39;39.27;96577.53;5027886;28;20471;-70
2023/10/18 10:37:18;;;;;;;17.47;11.30;;;;;;;18.93;38.60;96592.94;5028927;28;20438;-68
2023/10/18 10:39:44;;;;;;;14.23;10.60;;;;;;;19.43;38.32;96578.69;5027044;28;20504;-70
2023/10/18 10:42:27;;;;;;;11.93;10.20;;;;;;;19.62;37.27;96582.94;5016558;28;20513;-69
2023/10/18 10:45:10;;;;;;;12.73;9.77;;;;;;;20.08;37.30;96567.38;5035662;28;20473;-69
2023/10/18 10:47:42;;;;;;;12.53;9.10;;;;;;;20.34;36.25;96559.22;5030245;28;20419;-69
2023/10/18 10:50:09;;;;;;;14.47;9.70;;;;;;;20.64;35.46;96548.44;5035888;28;20484;-68
2023/10/18 10:52:38;;;;;;;13.23;9.87;;;;;;;20.70;34.88;96547.50;5033183;28;20431;-70
2023/10/18 10:55:17;;;;;;;14.20;9.40;;;;;;;20.95;35.28;96535.00;5036813;28;20509;-71
2023/10/18 10:57:46;;;;;;;12.27;10.13;;;;;;;21.02;35.09;96519.69;5035142;28;20444;-70
2023/10/18 11:00:50;;;;;;;12.53;10.10;;;;;;;21.30;34.86;96526.88;5023954;28;20439;-70
2023/10/18 11:03:33;;;;;;;10.50;9.40;;;;;;;21.92;34.32;96538.69;5035478;28;20445;-70
2023/10/18 11:05:59;;;;;;;11.03;9.13;;;;;;;22.22;33.74;96540.22;5029973;28;20786;-70
2023/10/18 11:08:26;;;;;;;10.13;9.07;;;;;;;22.01;32.22;96539.06;5031477;28;20986;-70
2023/10/18 11:10:52;;;;;;;10.67;8.70;;;;;;;21.52;33.43;96536.06;5029986;28;20476;-71
2023/10/18 11:13:22;;;;;;;16.90;9.30;;;;;;;20.83;33.49;96532.34;5031504;28;20899;-69
2023/10/18 11:15:54;;;;;;;10.87;8.17;;;;;;;20.54;34.60;96526.94;5028474;28;20226;-68
2023/10/18 11:18:27;;;;;;;12.50;8.20;;;;;;;20.27;35.39;96519.41;5031861;28;20457;-69
2023/10/18 11:21:05;;;;;;;9.40;8.37;;;;;;;20.07;35.84;96522.41;5029752;28;20827;-70
2023/10/18 11:23:33;;;;;;;10.77;8.40;;;;;;;19.62;36.60;96516.50;5028642;28;20440;-69
2023/10/18 11:25:59;;;;;;;9.50;8.10;;;;;;;19.51;37.32;96513.81;5043510;28;20418;-69
2023/10/18 11:28:29;;;;;;;9.53;8.50;;;;;;;19.41;36.72;96511.69;5039689;28;20477;-70
2023/10/18 11:30:56;;;;;;;10.60;8.00;;;;;;;19.28;37.09;96499.41;5036455;28;20930;-70
2023/10/18 11:33:46;;;;;;;16.77;8.43;;;;;;;19.16;37.79;96497.50;5034545;28;20419;-69
2023/10/18 11:36:12;;;;;;;10.97;8.30;;;;;;;19.15;37.77;96487.91;5025795;28;20421;-69
2023/10/18 11:38:38;;;;;;;12.87;8.53;;;;;;;19.08;37.94;96487.19;5034785;28;20521;-69
2023/10/18 11:41:11;;;;;;;13.17;9.33;;;;;;;19.06;38.04;96475.19;5029810;28;20506;-69
2023/10/18 11:43:40;;;;;;;9.10;8.20;;;;;;;19.05;38.31;96479.66;5033605;28;20427;-69
2023/10/18 11:46:07;;;;;;;12.27;8.73;;;;;;;19.10;38.65;96463.88;5024512;28;20422;-69
2023/10/18 11:48:33;;;;;;;11.90;10.23;;;;;;;19.03;38.91;96460.50;5038433;28;20465;-69
2023/10/18 11:50:59;;;;;;;28.23;10.90;;;;;;;19.00;39.38;96455.66;5032199;28;20506;-69
2023/10/18 11:53:26;;;;;;;13.63;10.80;;;;;;;18.98;39.21;96455.84;5028952;28;20430;-69
2023/10/18 11:56:05;;;;;;;14.23;10.20;;;;;;;18.94;39.11;96453.88;5029505;28;20242;-69
2023/10/18 11:58:32;;;;;;;21.63;11.97;;;;;;;18.86;39.12;96461.09;5033770;28;20474;-69